sensor_id;sensor_type;location;lat;lon;timestamp;P1;durP1;ratioP1;P2;durP2;ratioP2
5521;SDS011;2783;48.730;8.006;2022-07-09T00:00:40;8.90;;;4.65;;
5521;SDS011;2783;48.730;8.006;2022-07-09T00:03:05;8.02;;;3.90;;
5521;SDS011;2783;48.730;8.006;2022-07-09T00:05:31;8.40;;;3.63;;
5521;SDS011;2783;48.730;8.006;2022-07-09T00:07:56;7.13;;;3.45;;
5521;SDS011;2783;48.730;8.006;2022-07-09T00:10:22;6.32;;;2.75;;
5521;SDS011;2783;48.730;8.006;2022-07-09T00:12:47;7.97;;;2.80;;
5521;SDS011;2783;48.730;8.006;2022-07-09T00:15:13;5.72;;;2.70;;
5521;SDS011;2783;48.730;8.006;2022-07-09T00:17:38;6.43;;;3.13;;
5521;SDS011;2783;48.730;8.006;2022-07-09T00:20:04;5.38;;;3.03;;
5521;SDS011;2783;48.730;8.006;2022-07-09T00:22:33;4.60;;;2.85;;
5521;SDS011;2783;48.730;8.006;2022-07-09T00:24:59;6.90;;;3.25;;
5521;SDS011;2783;48.730;8.006;2022-07-09T00:27:25;5.80;;;2.53;;
5521;SDS011;2783;48.730;8.006;2022-07-09T00:29:51;4.75;;;2.85;;
5521;SDS011;2783;48.730;8.006;2022-07-09T00:32:16;5.72;;;3.20;;
5521;SDS011;2783;48.730;8.006;2022-07-09T00:34:43;5.00;;;2.47;;
5521;SDS011;2783;48.730;8.006;2022-07-09T00:37:09;5.43;;;2.88;;
5521;SDS011;2783;48.730;8.006;2022-07-09T00:39:34;6.22;;;2.60;;
5521;SDS011;2783;48.730;8.006;2022-07-09T00:42:07;6.60;;;3.30;;
5521;SDS011;2783;48.730;8.006;2022-07-09T00:44:34;4.50;;;2.40;;
5521;SDS011;2783;48.730;8.006;2022-07-09T00:47:00;6.65;;;3.05;;
5521;SDS011;2783;48.730;8.006;2022-07-09T00:49:27;4.78;;;3.00;;
5521;SDS011;2783;48.730;8.006;2022-07-09T00:51:54;5.95;;;2.75;;
5521;SDS011;2783;48.730;8.006;2022-07-09T00:54:20;6.60;;;3.20;;
5521;SDS011;2783;48.730;8.006;2022-07-09T00:56:46;5.25;;;2.95;;
5521;SDS011;2783;48.730;8.006;2022-07-09T00:59:12;4.95;;;2.88;;
5521;SDS011;2783;48.730;8.006;2022-07-09T01:01:41;7.70;;;3.25;;
5521;SDS011;2783;48.730;8.006;2022-07-09T01:04:07;6.32;;;3.10;;
5521;SDS011;2783;48.730;8.006;2022-07-09T01:06:32;6.43;;;3.50;;
5521;SDS011;2783;48.730;8.006;2022-07-09T01:09:01;5.45;;;3.20;;
5521;SDS011;2783;48.730;8.006;2022-07-09T01:11:27;6.60;;;2.88;;
5521;SDS011;2783;48.730;8.006;2022-07-09T01:13:53;6.63;;;3.13;;
5521;SDS011;2783;48.730;8.006;2022-07-09T01:16:19;7.13;;;3.30;;
5521;SDS011;2783;48.730;8.006;2022-07-09T01:18:48;6.63;;;3.38;;
5521;SDS011;2783;48.730;8.006;2022-07-09T01:21:13;6.03;;;3.20;;
5521;SDS011;2783;48.730;8.006;2022-07-09T01:23:39;6.60;;;3.25;;
5521;SDS011;2783;48.730;8.006;2022-07-09T01:26:04;6.13;;;3.15;;
5521;SDS011;2783;48.730;8.006;2022-07-09T01:28:31;4.97;;;2.88;;
5521;SDS011;2783;48.730;8.006;2022-07-09T01:30:56;4.70;;;3.38;;
5521;SDS011;2783;48.730;8.006;2022-07-09T01:33:22;7.82;;;3.10;;
5521;SDS011;2783;48.730;8.006;2022-07-09T01:35:47;5.03;;;2.78;;
5521;SDS011;2783;48.730;8.006;2022-07-09T01:38:13;4.65;;;2.90;;
5521;SDS011;2783;48.730;8.006;2022-07-09T01:40:38;5.63;;;3.40;;
5521;SDS011;2783;48.730;8.006;2022-07-09T01:43:04;5.78;;;3.65;;
5521;SDS011;2783;48.730;8.006;2022-07-09T01:45:29;9.85;;;3.53;;
5521;SDS011;2783;48.730;8.006;2022-07-09T01:47:55;7.95;;;3.30;;
5521;SDS011;2783;48.730;8.006;2022-07-09T01:50:20;6.18;;;3.40;;
5521;SDS011;2783;48.730;8.006;2022-07-09T01:52:46;4.65;;;2.90;;
5521;SDS011;2783;48.730;8.006;2022-07-09T01:55:11;7.20;;;3.47;;
5521;SDS011;2783;48.730;8.006;2022-07-09T01:57:37;5.90;;;3.40;;
5521;SDS011;2783;48.730;8.006;2022-07-09T02:00:03;4.72;;;3.22;;
5521;SDS011;2783;48.730;8.006;2022-07-09T02:02:30;7.07;;;3.33;;
5521;SDS011;2783;48.730;8.006;2022-07-09T02:04:55;6.60;;;3.08;;
5521;SDS011;2783;48.730;8.006;2022-07-09T02:07:20;6.22;;;3.08;;
5521;SDS011;2783;48.730;8.006;2022-07-09T02:09:46;6.45;;;3.50;;
5521;SDS011;2783;48.730;8.006;2022-07-09T02:12:13;9.50;;;4.10;;
5521;SDS011;2783;48.730;8.006;2022-07-09T02:14:39;8.52;;;3.97;;
5521;SDS011;2783;48.730;8.006;2022-07-09T02:17:04;8.40;;;3.63;;
5521;SDS011;2783;48.730;8.006;2022-07-09T02:19:30;9.80;;;5.95;;
5521;SDS011;2783;48.730;8.006;2022-07-09T02:21:56;8.65;;;4.05;;
5521;SDS011;2783;48.730;8.006;2022-07-09T02:24:21;9.55;;;4.40;;
5521;SDS011;2783;48.730;8.006;2022-07-09T02:26:47;7.43;;;4.20;;
5521;SDS011;2783;48.730;8.006;2022-07-09T02:29:12;7.68;;;3.75;;
5521;SDS011;2783;48.730;8.006;2022-07-09T02:31:37;5.95;;;3.17;;
5521;SDS011;2783;48.730;8.006;2022-07-09T02:34:03;7.20;;;3.47;;
5521;SDS011;2783;48.730;8.006;2022-07-09T02:36:28;5.10;;;2.88;;
5521;SDS011;2783;48.730;8.006;2022-07-09T02:38:53;5.22;;;3.28;;
5521;SDS011;2783;48.730;8.006;2022-07-09T02:41:19;5.65;;;2.95;;
5521;SDS011;2783;48.730;8.006;2022-07-09T02:43:44;8.63;;;2.92;;
5521;SDS011;2783;48.730;8.006;2022-07-09T02:46:10;5.53;;;3.13;;
5521;SDS011;2783;48.730;8.006;2022-07-09T02:48:36;5.50;;;3.35;;
5521;SDS011;2783;48.730;8.006;2022-07-09T02:51:01;5.25;;;3.15;;
5521;SDS011;2783;48.730;8.006;2022-07-09T02:53:28;5.65;;;3.50;;
5521;SDS011;2783;48.730;8.006;2022-07-09T02:55:53;6.05;;;3.17;;
5521;SDS011;2783;48.730;8.006;2022-07-09T02:58:19;5.25;;;3.70;;
5521;SDS011;2783;48.730;8.006;2022-07-09T03:00:44;5.38;;;3.40;;
5521;SDS011;2783;48.730;8.006;2022-07-09T03:03:10;8.77;;;3.50;;
5521;SDS011;2783;48.730;8.006;2022-07-09T03:05:35;6.55;;;3.45;;
5521;SDS011;2783;48.730;8.006;2022-07-09T03:08:01;6.38;;;3.65;;
5521;SDS011;2783;48.730;8.006;2022-07-09T03:10:27;9.30;;;3.53;;
5521;SDS011;2783;48.730;8.006;2022-07-09T03:12:54;6.20;;;3.58;;
5521;SDS011;2783;48.730;8.006;2022-07-09T03:15:19;5.07;;;2.90;;
5521;SDS011;2783;48.730;8.006;2022-07-09T03:17:45;7.20;;;3.88;;
5521;SDS011;2783;48.730;8.006;2022-07-09T03:20:12;12.93;;;3.65;;
5521;SDS011;2783;48.730;8.006;2022-07-09T03:22:38;7.78;;;3.28;;
5521;SDS011;2783;48.730;8.006;2022-07-09T03:25:04;6.05;;;3.53;;
5521;SDS011;2783;48.730;8.006;2022-07-09T03:27:30;8.40;;;3.35;;
5521;SDS011;2783;48.730;8.006;2022-07-09T03:29:55;7.43;;;3.92;;
5521;SDS011;2783;48.730;8.006;2022-07-09T03:32:21;5.47;;;3.15;;
5521;SDS011;2783;48.730;8.006;2022-07-09T03:34:47;7.20;;;3.70;;
5521;SDS011;2783;48.730;8.006;2022-07-09T03:37:12;7.70;;;3.40;;
5521;SDS011;2783;48.730;8.006;2022-07-09T03:39:41;5.60;;;3.17;;
5521;SDS011;2783;48.730;8.006;2022-07-09T03:42:06;5.88;;;3.40;;
5521;SDS011;2783;48.730;8.006;2022-07-09T03:44:32;5.38;;;3.20;;
5521;SDS011;2783;48.730;8.006;2022-07-09T03:46:58;6.80;;;4.03;;
5521;SDS011;2783;48.730;8.006;2022-07-09T03:49:24;7.90;;;4.32;;
5521;SDS011;2783;48.730;8.006;2022-07-09T03:51:49;6.82;;;3.58;;
5521;SDS011;2783;48.730;8.006;2022-07-09T03:54:15;6.22;;;3.58;;
5521;SDS011;2783;48.730;8.006;2022-07-09T03:56:40;6.35;;;3.50;;
5521;SDS011;2783;48.730;8.006;2022-07-09T03:59:06;6.72;;;3.70;;
5521;SDS011;2783;48.730;8.006;2022-07-09T04:01:31;8.35;;;3.95;;
5521;SDS011;2783;48.730;8.006;2022-07-09T04:03:57;6.93;;;3.55;;
5521;SDS011;2783;48.730;8.006;2022-07-09T04:06:23;8.23;;;3.70;;
5521;SDS011;2783;48.730;8.006;2022-07-09T04:08:49;7.03;;;4.20;;
5521;SDS011;2783;48.730;8.006;2022-07-09T04:11:14;7.05;;;3.13;;
5521;SDS011;2783;48.730;8.006;2022-07-09T04:13:40;8.82;;;3.55;;
5521;SDS011;2783;48.730;8.006;2022-07-09T04:16:05;6.28;;;3.17;;
5521;SDS011;2783;48.730;8.006;2022-07-09T04:18:31;7.40;;;3.47;;
5521;SDS011;2783;48.730;8.006;2022-07-09T04:20:56;7.68;;;3.15;;
5521;SDS011;2783;48.730;8.006;2022-07-09T04:23:22;6.72;;;3.45;;
5521;SDS011;2783;48.730;8.006;2022-07-09T04:25:48;5.72;;;3.15;;
5521;SDS011;2783;48.730;8.006;2022-07-09T04:28:16;6.20;;;3.33;;
5521;SDS011;2783;48.730;8.006;2022-07-09T04:30:47;9.82;;;4.22;;
5521;SDS011;2783;48.730;8.006;2022-07-09T04:33:13;9.10;;;3.95;;
5521;SDS011;2783;48.730;8.006;2022-07-09T04:35:38;6.82;;;4.22;;
5521;SDS011;2783;48.730;8.006;2022-07-09T04:38:04;6.40;;;3.90;;
5521;SDS011;2783;48.730;8.006;2022-07-09T04:40:29;7.32;;;3.88;;
5521;SDS011;2783;48.730;8.006;2022-07-09T04:42:55;10.90;;;4.00;;
5521;SDS011;2783;48.730;8.006;2022-07-09T04:45:21;7.32;;;3.78;;
5521;SDS011;2783;48.730;8.006;2022-07-09T04:47:47;6.32;;;4.22;;
5521;SDS011;2783;48.730;8.006;2022-07-09T04:50:12;11.82;;;3.83;;
5521;SDS011;2783;48.730;8.006;2022-07-09T04:52:38;9.02;;;4.00;;
5521;SDS011;2783;48.730;8.006;2022-07-09T04:55:04;6.57;;;3.50;;
5521;SDS011;2783;48.730;8.006;2022-07-09T04:57:31;7.00;;;3.65;;
5521;SDS011;2783;48.730;8.006;2022-07-09T04:59:59;8.50;;;4.13;;
5521;SDS011;2783;48.730;8.006;2022-07-09T05:02:26;8.57;;;4.00;;
5521;SDS011;2783;48.730;8.006;2022-07-09T05:04:52;7.85;;;3.55;;
5521;SDS011;2783;48.730;8.006;2022-07-09T05:07:17;7.53;;;3.78;;
5521;SDS011;2783;48.730;8.006;2022-07-09T05:09:42;6.28;;;3.70;;
5521;SDS011;2783;48.730;8.006;2022-07-09T05:12:08;6.43;;;3.55;;
5521;SDS011;2783;48.730;8.006;2022-07-09T05:14:35;8.23;;;3.65;;
5521;SDS011;2783;48.730;8.006;2022-07-09T05:17:04;10.40;;;3.80;;
5521;SDS011;2783;48.730;8.006;2022-07-09T05:19:30;8.18;;;3.95;;
5521;SDS011;2783;48.730;8.006;2022-07-09T05:21:56;6.55;;;3.33;;
5521;SDS011;2783;48.730;8.006;2022-07-09T05:24:22;6.03;;;3.33;;
5521;SDS011;2783;48.730;8.006;2022-07-09T05:26:48;5.68;;;3.33;;
5521;SDS011;2783;48.730;8.006;2022-07-09T05:29:13;6.80;;;3.47;;
5521;SDS011;2783;48.730;8.006;2022-07-09T05:31:39;7.82;;;3.03;;
5521;SDS011;2783;48.730;8.006;2022-07-09T05:34:05;10.60;;;3.55;;
5521;SDS011;2783;48.730;8.006;2022-07-09T05:36:30;10.18;;;3.90;;
5521;SDS011;2783;48.730;8.006;2022-07-09T05:38:57;6.20;;;3.13;;
5521;SDS011;2783;48.730;8.006;2022-07-09T05:41:23;6.90;;;3.47;;
5521;SDS011;2783;48.730;8.006;2022-07-09T05:43:50;8.05;;;3.45;;
5521;SDS011;2783;48.730;8.006;2022-07-09T05:46:16;5.90;;;3.10;;
5521;SDS011;2783;48.730;8.006;2022-07-09T05:48:41;7.85;;;3.75;;
5521;SDS011;2783;48.730;8.006;2022-07-09T05:51:07;6.63;;;3.28;;
5521;SDS011;2783;48.730;8.006;2022-07-09T05:53:32;6.43;;;3.20;;
5521;SDS011;2783;48.730;8.006;2022-07-09T05:55:58;5.63;;;3.00;;
5521;SDS011;2783;48.730;8.006;2022-07-09T05:58:23;7.85;;;3.80;;
5521;SDS011;2783;48.730;8.006;2022-07-09T06:00:49;9.10;;;3.08;;
5521;SDS011;2783;48.730;8.006;2022-07-09T06:03:14;6.35;;;3.08;;
5521;SDS011;2783;48.730;8.006;2022-07-09T06:05:39;5.18;;;3.08;;
5521;SDS011;2783;48.730;8.006;2022-07-09T06:08:05;6.05;;;3.40;;
5521;SDS011;2783;48.730;8.006;2022-07-09T06:10:30;6.78;;;2.85;;
5521;SDS011;2783;48.730;8.006;2022-07-09T06:12:56;12.57;;;3.70;;
5521;SDS011;2783;48.730;8.006;2022-07-09T06:15:21;5.43;;;3.17;;
5521;SDS011;2783;48.730;8.006;2022-07-09T06:17:46;7.45;;;2.83;;
5521;SDS011;2783;48.730;8.006;2022-07-09T06:20:15;5.20;;;3.15;;
5521;SDS011;2783;48.730;8.006;2022-07-09T06:22:41;5.60;;;3.13;;
5521;SDS011;2783;48.730;8.006;2022-07-09T06:25:06;6.55;;;3.15;;
5521;SDS011;2783;48.730;8.006;2022-07-09T06:27:32;5.55;;;3.08;;
5521;SDS011;2783;48.730;8.006;2022-07-09T06:29:57;5.90;;;3.92;;
5521;SDS011;2783;48.730;8.006;2022-07-09T06:32:23;5.53;;;2.72;;
5521;SDS011;2783;48.730;8.006;2022-07-09T06:34:48;6.57;;;2.78;;
5521;SDS011;2783;48.730;8.006;2022-07-09T06:37:13;5.75;;;3.20;;
5521;SDS011;2783;48.730;8.006;2022-07-09T06:39:39;5.35;;;2.55;;
5521;SDS011;2783;48.730;8.006;2022-07-09T06:42:10;6.32;;;2.60;;
5521;SDS011;2783;48.730;8.006;2022-07-09T06:44:37;6.85;;;3.22;;
5521;SDS011;2783;48.730;8.006;2022-07-09T06:47:03;5.47;;;2.65;;
5521;SDS011;2783;48.730;8.006;2022-07-09T06:49:29;6.97;;;3.05;;
5521;SDS011;2783;48.730;8.006;2022-07-09T06:51:55;5.32;;;2.53;;
5521;SDS011;2783;48.730;8.006;2022-07-09T06:54:21;7.93;;;3.25;;
5521;SDS011;2783;48.730;8.006;2022-07-09T06:56:46;10.50;;;3.08;;
5521;SDS011;2783;48.730;8.006;2022-07-09T06:59:12;9.18;;;2.80;;
5521;SDS011;2783;48.730;8.006;2022-07-09T07:01:38;5.75;;;2.53;;
5521;SDS011;2783;48.730;8.006;2022-07-09T07:04:03;5.00;;;2.80;;
5521;SDS011;2783;48.730;8.006;2022-07-09T07:06:29;7.65;;;3.20;;
5521;SDS011;2783;48.730;8.006;2022-07-09T07:08:54;5.53;;;2.78;;
5521;SDS011;2783;48.730;8.006;2022-07-09T07:11:20;5.65;;;2.40;;
5521;SDS011;2783;48.730;8.006;2022-07-09T07:13:45;7.18;;;2.92;;
5521;SDS011;2783;48.730;8.006;2022-07-09T07:16:11;4.80;;;2.40;;
5521;SDS011;2783;48.730;8.006;2022-07-09T07:18:36;6.38;;;2.53;;
5521;SDS011;2783;48.730;8.006;2022-07-09T07:21:01;5.28;;;2.38;;
5521;SDS011;2783;48.730;8.006;2022-07-09T07:23:27;6.53;;;2.80;;
5521;SDS011;2783;48.730;8.006;2022-07-09T07:25:52;6.00;;;2.38;;
5521;SDS011;2783;48.730;8.006;2022-07-09T07:28:18;7.57;;;2.40;;
5521;SDS011;2783;48.730;8.006;2022-07-09T07:30:43;5.30;;;2.08;;
5521;SDS011;2783;48.730;8.006;2022-07-09T07:33:09;6.38;;;2.20;;
5521;SDS011;2783;48.730;8.006;2022-07-09T07:35:34;3.20;;;2.10;;
5521;SDS011;2783;48.730;8.006;2022-07-09T07:38:00;3.70;;;2.25;;
5521;SDS011;2783;48.730;8.006;2022-07-09T07:40:25;4.78;;;2.00;;
5521;SDS011;2783;48.730;8.006;2022-07-09T07:42:50;3.70;;;1.85;;
5521;SDS011;2783;48.730;8.006;2022-07-09T07:45:16;4.25;;;1.90;;
5521;SDS011;2783;48.730;8.006;2022-07-09T07:47:41;5.22;;;2.20;;
5521;SDS011;2783;48.730;8.006;2022-07-09T07:50:07;4.68;;;2.10;;
5521;SDS011;2783;48.730;8.006;2022-07-09T07:52:33;4.47;;;1.92;;
5521;SDS011;2783;48.730;8.006;2022-07-09T07:54:59;3.72;;;1.98;;
5521;SDS011;2783;48.730;8.006;2022-07-09T07:57:24;3.85;;;1.92;;
5521;SDS011;2783;48.730;8.006;2022-07-09T07:59:49;4.38;;;1.70;;
5521;SDS011;2783;48.730;8.006;2022-07-09T08:02:15;4.55;;;2.13;;
5521;SDS011;2783;48.730;8.006;2022-07-09T08:04:40;4.53;;;1.80;;
5521;SDS011;2783;48.730;8.006;2022-07-09T08:07:06;3.45;;;2.08;;
5521;SDS011;2783;48.730;8.006;2022-07-09T08:09:32;4.95;;;2.10;;
5521;SDS011;2783;48.730;8.006;2022-07-09T08:11:59;4.72;;;1.90;;
5521;SDS011;2783;48.730;8.006;2022-07-09T08:14:24;3.38;;;1.73;;
5521;SDS011;2783;48.730;8.006;2022-07-09T08:16:50;6.38;;;1.67;;
5521;SDS011;2783;48.730;8.006;2022-07-09T08:19:15;6.35;;;2.15;;
5521;SDS011;2783;48.730;8.006;2022-07-09T08:21:41;4.10;;;1.83;;
5521;SDS011;2783;48.730;8.006;2022-07-09T08:24:07;3.40;;;2.03;;
5521;SDS011;2783;48.730;8.006;2022-07-09T08:26:32;5.95;;;1.40;;
5521;SDS011;2783;48.730;8.006;2022-07-09T08:28:58;4.40;;;1.40;;
5521;SDS011;2783;48.730;8.006;2022-07-09T08:31:24;3.38;;;1.60;;
5521;SDS011;2783;48.730;8.006;2022-07-09T08:33:50;2.95;;;1.27;;
5521;SDS011;2783;48.730;8.006;2022-07-09T08:36:16;3.67;;;1.50;;
5521;SDS011;2783;48.730;8.006;2022-07-09T08:38:42;5.25;;;1.40;;
5521;SDS011;2783;48.730;8.006;2022-07-09T08:41:08;3.00;;;1.63;;
5521;SDS011;2783;48.730;8.006;2022-07-09T08:43:35;6.28;;;1.58;;
5521;SDS011;2783;48.730;8.006;2022-07-09T08:46:02;3.90;;;1.40;;
5521;SDS011;2783;48.730;8.006;2022-07-09T08:48:31;5.50;;;1.70;;
5521;SDS011;2783;48.730;8.006;2022-07-09T08:50:58;2.58;;;1.30;;
5521;SDS011;2783;48.730;8.006;2022-07-09T08:53:24;3.78;;;1.45;;
5521;SDS011;2783;48.730;8.006;2022-07-09T08:55:53;4.05;;;1.35;;
5521;SDS011;2783;48.730;8.006;2022-07-09T08:58:19;4.00;;;1.33;;
5521;SDS011;2783;48.730;8.006;2022-07-09T09:00:45;2.22;;;1.02;;
5521;SDS011;2783;48.730;8.006;2022-07-09T09:03:12;2.92;;;1.08;;
5521;SDS011;2783;48.730;8.006;2022-07-09T09:05:38;3.42;;;1.33;;
5521;SDS011;2783;48.730;8.006;2022-07-09T09:08:16;3.53;;;1.38;;
5521;SDS011;2783;48.730;8.006;2022-07-09T09:10:44;4.88;;;1.55;;
5521;SDS011;2783;48.730;8.006;2022-07-09T09:13:13;1.65;;;0.88;;
5521;SDS011;2783;48.730;8.006;2022-07-09T09:15:40;6.45;;;1.63;;
5521;SDS011;2783;48.730;8.006;2022-07-09T09:18:06;1.85;;;0.88;;
5521;SDS011;2783;48.730;8.006;2022-07-09T09:20:31;2.65;;;1.00;;
5521;SDS011;2783;48.730;8.006;2022-07-09T09:22:57;2.50;;;1.17;;
5521;SDS011;2783;48.730;8.006;2022-07-09T09:25:27;2.78;;;1.00;;
5521;SDS011;2783;48.730;8.006;2022-07-09T09:27:54;3.85;;;1.00;;
5521;SDS011;2783;48.730;8.006;2022-07-09T09:30:23;1.95;;;0.80;;
5521;SDS011;2783;48.730;8.006;2022-07-09T09:32:56;2.17;;;0.60;;
5521;SDS011;2783;48.730;8.006;2022-07-09T09:35:26;2.28;;;0.90;;
5521;SDS011;2783;48.730;8.006;2022-07-09T09:37:52;3.53;;;1.25;;
5521;SDS011;2783;48.730;8.006;2022-07-09T09:40:18;3.90;;;1.00;;
5521;SDS011;2783;48.730;8.006;2022-07-09T09:42:44;5.03;;;0.93;;
5521;SDS011;2783;48.730;8.006;2022-07-09T09:45:14;4.30;;;1.13;;
5521;SDS011;2783;48.730;8.006;2022-07-09T09:50:15;2.40;;;1.02;;
5521;SDS011;2783;48.730;8.006;2022-07-09T09:52:45;2.30;;;1.35;;
5521;SDS011;2783;48.730;8.006;2022-07-09T09:55:12;3.58;;;1.30;;
5521;SDS011;2783;48.730;8.006;2022-07-09T09:57:38;2.65;;;1.30;;
5521;SDS011;2783;48.730;8.006;2022-07-09T10:00:04;4.32;;;1.10;;
5521;SDS011;2783;48.730;8.006;2022-07-09T10:02:31;3.38;;;1.17;;
5521;SDS011;2783;48.730;8.006;2022-07-09T10:04:57;2.97;;;1.00;;
5521;SDS011;2783;48.730;8.006;2022-07-09T10:07:26;1.98;;;0.88;;
5521;SDS011;2783;48.730;8.006;2022-07-09T10:09:57;1.90;;;0.93;;
5521;SDS011;2783;48.730;8.006;2022-07-09T10:12:27;2.35;;;0.90;;
5521;SDS011;2783;48.730;8.006;2022-07-09T10:14:53;1.58;;;0.90;;
5521;SDS011;2783;48.730;8.006;2022-07-09T10:17:19;4.25;;;0.80;;
5521;SDS011;2783;48.730;8.006;2022-07-09T10:22:21;1.73;;;0.60;;
5521;SDS011;2783;48.730;8.006;2022-07-09T10:24:49;1.65;;;0.80;;
5521;SDS011;2783;48.730;8.006;2022-07-09T10:27:16;1.67;;;0.65;;
5521;SDS011;2783;48.730;8.006;2022-07-09T10:29:55;1.33;;;0.75;;
5521;SDS011;2783;48.730;8.006;2022-07-09T10:32:29;2.05;;;0.85;;
5521;SDS011;2783;48.730;8.006;2022-07-09T10:35:05;2.53;;;0.95;;
5521;SDS011;2783;48.730;8.006;2022-07-09T10:37:35;2.97;;;1.00;;
5521;SDS011;2783;48.730;8.006;2022-07-09T10:40:15;3.08;;;0.80;;
5521;SDS011;2783;48.730;8.006;2022-07-09T10:42:41;1.05;;;0.60;;
5521;SDS011;2783;48.730;8.006;2022-07-09T10:47:43;1.40;;;0.88;;
5521;SDS011;2783;48.730;8.006;2022-07-09T10:50:12;4.75;;;1.20;;
5521;SDS011;2783;48.730;8.006;2022-07-09T10:52:37;1.02;;;0.70;;
5521;SDS011;2783;48.730;8.006;2022-07-09T10:55:03;1.85;;;0.90;;
5521;SDS011;2783;48.730;8.006;2022-07-09T10:57:29;2.30;;;0.90;;
5521;SDS011;2783;48.730;8.006;2022-07-09T10:59:54;2.50;;;0.80;;
5521;SDS011;2783;48.730;8.006;2022-07-09T11:02:20;4.53;;;0.80;;
5521;SDS011;2783;48.730;8.006;2022-07-09T11:04:50;0.95;;;0.60;;
5521;SDS011;2783;48.730;8.006;2022-07-09T11:07:23;1.38;;;0.80;;
5521;SDS011;2783;48.730;8.006;2022-07-09T11:09:49;1.80;;;0.80;;
5521;SDS011;2783;48.730;8.006;2022-07-09T11:12:16;0.93;;;0.70;;
5521;SDS011;2783;48.730;8.006;2022-07-09T11:14:47;2.33;;;0.90;;
5521;SDS011;2783;48.730;8.006;2022-07-09T11:17:15;5.32;;;0.98;;
5521;SDS011;2783;48.730;8.006;2022-07-09T11:19:41;1.80;;;0.82;;
5521;SDS011;2783;48.730;8.006;2022-07-09T11:22:07;3.63;;;0.98;;
5521;SDS011;2783;48.730;8.006;2022-07-09T11:24:32;1.10;;;0.70;;
5521;SDS011;2783;48.730;8.006;2022-07-09T11:27:01;3.75;;;1.10;;
5521;SDS011;2783;48.730;8.006;2022-07-09T11:29:27;1.75;;;1.08;;
5521;SDS011;2783;48.730;8.006;2022-07-09T11:31:53;1.98;;;1.10;;
5521;SDS011;2783;48.730;8.006;2022-07-09T11:34:19;3.80;;;0.70;;
5521;SDS011;2783;48.730;8.006;2022-07-09T11:36:51;3.00;;;0.77;;
5521;SDS011;2783;48.730;8.006;2022-07-09T11:41:54;1.48;;;1.00;;
5521;SDS011;2783;48.730;8.006;2022-07-09T11:44:21;3.38;;;1.00;;
5521;SDS011;2783;48.730;8.006;2022-07-09T11:47:07;3.08;;;1.05;;
5521;SDS011;2783;48.730;8.006;2022-07-09T11:52:04;2.85;;;1.20;;
5521;SDS011;2783;48.730;8.006;2022-07-09T11:54:30;5.25;;;1.60;;
5521;SDS011;2783;48.730;8.006;2022-07-09T11:56:56;5.13;;;1.10;;
5521;SDS011;2783;48.730;8.006;2022-07-09T11:59:28;4.07;;;0.93;;
5521;SDS011;2783;48.730;8.006;2022-07-09T12:01:56;1.98;;;0.80;;
5521;SDS011;2783;48.730;8.006;2022-07-09T12:04:23;2.72;;;0.85;;
5521;SDS011;2783;48.730;8.006;2022-07-09T12:06:49;3.70;;;0.98;;
5521;SDS011;2783;48.730;8.006;2022-07-09T12:09:26;1.65;;;0.98;;
5521;SDS011;2783;48.730;8.006;2022-07-09T12:11:53;4.40;;;1.13;;
5521;SDS011;2783;48.730;8.006;2022-07-09T12:14:19;2.17;;;1.00;;
5521;SDS011;2783;48.730;8.006;2022-07-09T12:16:44;2.83;;;1.20;;
5521;SDS011;2783;48.730;8.006;2022-07-09T12:19:09;2.00;;;0.70;;
5521;SDS011;2783;48.730;8.006;2022-07-09T12:21:35;1.60;;;0.90;;
5521;SDS011;2783;48.730;8.006;2022-07-09T12:24:00;2.80;;;0.93;;
5521;SDS011;2783;48.730;8.006;2022-07-09T12:26:26;1.98;;;0.70;;
5521;SDS011;2783;48.730;8.006;2022-07-09T12:28:51;3.35;;;0.75;;
5521;SDS011;2783;48.730;8.006;2022-07-09T12:31:16;2.28;;;0.85;;
5521;SDS011;2783;48.730;8.006;2022-07-09T12:33:42;1.55;;;0.57;;
5521;SDS011;2783;48.730;8.006;2022-07-09T12:36:07;1.77;;;0.75;;
5521;SDS011;2783;48.730;8.006;2022-07-09T12:38:32;0.95;;;0.75;;
5521;SDS011;2783;48.730;8.006;2022-07-09T12:40:58;1.45;;;0.80;;
5521;SDS011;2783;48.730;8.006;2022-07-09T12:43:24;1.40;;;0.88;;
5521;SDS011;2783;48.730;8.006;2022-07-09T12:45:49;5.50;;;0.90;;
5521;SDS011;2783;48.730;8.006;2022-07-09T12:48:15;2.83;;;0.65;;
5521;SDS011;2783;48.730;8.006;2022-07-09T12:50:40;2.63;;;0.60;;
5521;SDS011;2783;48.730;8.006;2022-07-09T12:53:05;3.47;;;0.88;;
5521;SDS011;2783;48.730;8.006;2022-07-09T12:55:31;2.67;;;0.80;;
5521;SDS011;2783;48.730;8.006;2022-07-09T12:57:56;1.98;;;1.02;;
5521;SDS011;2783;48.730;8.006;2022-07-09T13:00:22;2.92;;;1.10;;
5521;SDS011;2783;48.730;8.006;2022-07-09T13:02:47;1.17;;;0.70;;
5521;SDS011;2783;48.730;8.006;2022-07-09T13:05:13;1.88;;;0.75;;
5521;SDS011;2783;48.730;8.006;2022-07-09T13:07:41;1.52;;;1.10;;
5521;SDS011;2783;48.730;8.006;2022-07-09T13:10:07;2.10;;;0.80;;
5521;SDS011;2783;48.730;8.006;2022-07-09T13:12:33;3.10;;;1.40;;
5521;SDS011;2783;48.730;8.006;2022-07-09T13:14:59;2.28;;;0.63;;
5521;SDS011;2783;48.730;8.006;2022-07-09T13:17:24;1.80;;;0.70;;
5521;SDS011;2783;48.730;8.006;2022-07-09T13:19:50;2.05;;;0.88;;
5521;SDS011;2783;48.730;8.006;2022-07-09T13:22:17;4.03;;;1.00;;
5521;SDS011;2783;48.730;8.006;2022-07-09T13:24:44;1.25;;;0.82;;
5521;SDS011;2783;48.730;8.006;2022-07-09T13:27:09;3.08;;;1.35;;
5521;SDS011;2783;48.730;8.006;2022-07-09T13:29:36;2.80;;;0.90;;
5521;SDS011;2783;48.730;8.006;2022-07-09T13:32:01;1.23;;;0.73;;
5521;SDS011;2783;48.730;8.006;2022-07-09T13:34:28;0.60;;;0.60;;
5521;SDS011;2783;48.730;8.006;2022-07-09T13:36:53;1.65;;;0.85;;
5521;SDS011;2783;48.730;8.006;2022-07-09T13:39:18;2.08;;;0.70;;
5521;SDS011;2783;48.730;8.006;2022-07-09T13:41:44;1.50;;;0.57;;
5521;SDS011;2783;48.730;8.006;2022-07-09T13:44:09;2.30;;;0.90;;
5521;SDS011;2783;48.730;8.006;2022-07-09T13:46:35;1.90;;;0.80;;
5521;SDS011;2783;48.730;8.006;2022-07-09T13:49:00;3.28;;;0.77;;
5521;SDS011;2783;48.730;8.006;2022-07-09T13:51:26;1.23;;;0.70;;
5521;SDS011;2783;48.730;8.006;2022-07-09T13:53:51;3.15;;;0.75;;
5521;SDS011;2783;48.730;8.006;2022-07-09T13:56:16;1.35;;;0.75;;
5521;SDS011;2783;48.730;8.006;2022-07-09T13:58:42;7.18;;;0.98;;
5521;SDS011;2783;48.730;8.006;2022-07-09T14:01:07;1.40;;;0.80;;
5521;SDS011;2783;48.730;8.006;2022-07-09T14:03:33;0.93;;;0.70;;
5521;SDS011;2783;48.730;8.006;2022-07-09T14:05:58;1.55;;;0.80;;
5521;SDS011;2783;48.730;8.006;2022-07-09T14:08:24;3.45;;;0.80;;
5521;SDS011;2783;48.730;8.006;2022-07-09T14:10:52;1.35;;;0.50;;
5521;SDS011;2783;48.730;8.006;2022-07-09T14:13:23;3.28;;;0.98;;
5521;SDS011;2783;48.730;8.006;2022-07-09T14:15:55;1.80;;;0.90;;
5521;SDS011;2783;48.730;8.006;2022-07-09T14:18:21;1.63;;;0.80;;
5521;SDS011;2783;48.730;8.006;2022-07-09T14:20:47;2.05;;;0.70;;
5521;SDS011;2783;48.730;8.006;2022-07-09T14:23:13;1.05;;;0.68;;
5521;SDS011;2783;48.730;8.006;2022-07-09T14:25:39;2.40;;;0.85;;
5521;SDS011;2783;48.730;8.006;2022-07-09T14:28:05;1.40;;;0.88;;
5521;SDS011;2783;48.730;8.006;2022-07-09T14:30:30;0.80;;;0.70;;
5521;SDS011;2783;48.730;8.006;2022-07-09T14:32:57;5.07;;;1.35;;
5521;SDS011;2783;48.730;8.006;2022-07-09T14:35:24;2.70;;;1.00;;
5521;SDS011;2783;48.730;8.006;2022-07-09T14:37:50;2.75;;;0.95;;
5521;SDS011;2783;48.730;8.006;2022-07-09T14:40:15;2.70;;;0.98;;
5521;SDS011;2783;48.730;8.006;2022-07-09T14:42:41;4.22;;;0.80;;
5521;SDS011;2783;48.730;8.006;2022-07-09T14:45:06;1.15;;;0.63;;
5521;SDS011;2783;48.730;8.006;2022-07-09T14:47:32;1.20;;;0.75;;
5521;SDS011;2783;48.730;8.006;2022-07-09T14:49:57;2.47;;;0.90;;
5521;SDS011;2783;48.730;8.006;2022-07-09T14:52:23;2.03;;;0.75;;
5521;SDS011;2783;48.730;8.006;2022-07-09T14:54:48;0.70;;;0.60;;
5521;SDS011;2783;48.730;8.006;2022-07-09T14:57:14;1.38;;;0.80;;
5521;SDS011;2783;48.730;8.006;2022-07-09T14:59:39;1.38;;;0.80;;
5521;SDS011;2783;48.730;8.006;2022-07-09T15:02:05;1.45;;;0.80;;
5521;SDS011;2783;48.730;8.006;2022-07-09T15:04:30;1.80;;;0.98;;
5521;SDS011;2783;48.730;8.006;2022-07-09T15:06:56;1.65;;;0.80;;
5521;SDS011;2783;48.730;8.006;2022-07-09T15:09:21;2.42;;;1.00;;
5521;SDS011;2783;48.730;8.006;2022-07-09T15:11:47;1.27;;;0.77;;
5521;SDS011;2783;48.730;8.006;2022-07-09T15:14:12;1.13;;;0.93;;
5521;SDS011;2783;48.730;8.006;2022-07-09T15:16:38;1.30;;;0.80;;
5521;SDS011;2783;48.730;8.006;2022-07-09T15:19:04;1.20;;;0.80;;
5521;SDS011;2783;48.730;8.006;2022-07-09T15:21:29;1.05;;;0.68;;